LESO/EAS METAR and TAF weather

Enter ICAO airport designator
Station Type Date Time Source
LESO METAR 2022/01/26 21:00 UTC NOAA

LESO 262100Z AUTO 20003KT 6000 NCD 04/04 Q1031


Station Type Date Time Source
LESO Decoded METAR 2022/01/26 21:00 UTC NOAA

San Sebastian / Fuenterrabia, Spain (LESO) 43-21N 001-48W 8M
Jan 26, 2022 - 04:00 PM EST / 2022.01.26 2100 UTC
Wind: from the SSW (200 degrees) at 3 MPH (3 KT):0
Visibility: 3 mile(s):0
Temperature: 39 F (4 C)
Dew Point: 39 F (4 C)
Relative Humidity: 100%
Pressure (altimeter): 30.45 in. Hg (1031 hPa)
ob: LESO 262100Z AUTO 20003KT 6000 NCD 04/04 Q1031
cycle: 21

Station Type Date Time Source
LESO TAF 2022/01/26 18:27 UTC NOAA

TAF TAF LESO 261700Z 2618/2718 VRB04KT 9999 FEW005 TX07/2714Z TNM00/2707Z PROB30
TEMPO 2621/2708 3000 BR BCFG BKN005 PROB30
TEMPO 2702/2707 1500 BCFG BKN003 PROB30
TEMPO 2704/2708 0800 FZFG BKN001

Example: see airport list